x

South Santa Rosa Is. Ca (46069) Wave Buoy

1:50 - Thu 28th Jul 2016 All times are PDT. -7 hours from GMT.

  • Sig Wave height 5.2ft
  • Swell Direction
  • Peak Period 10s
  • Average Period 6s
  • Wind
    16mph, 18mph gusts
  • Sea Temp 68°f
  • Ar Temp 62°f
  • Sea Pressure 1013.1mb
  • South Santa Rosa Is. Ca
  • South Santa Rosa Is. Ca

More Historic Weather Station data

Upgrade to MSW Pro to gain access to the past 30 days of data for over 8000 Wavebouys and Weather Stations around the globe.

Join Pro

Comparision Forecast

View Surf forecast
   
Qui 07/28 1:50 5ft 10s 6s 16 18 mph 1013.1mb 68f 62f
12:50 5.5ft 10s 7s 13 18 mph 1013.6mb 68f 62f
10:50 6ft 10s 7s 13 18 mph 1013.5mb 67f 62f
9:50 6ft 10s 7s 13 16 mph 1013.3mb 67f 62f
8:50 6ft 10s 7s 13 18 mph 1013.3mb 67f 61f
7:50 6ft 10s 6s 13 18 mph 1013.2mb 67f 61f
6:50 6.5ft 10s 7s 16 20 mph 1012.6mb 67f 61f
5:50 6.5ft 10s 7s 16 18 mph 1012mb 67f 61f
4:50 6.5ft 10s 7s 16 20 mph 1011.9mb 67f 61f
3:50 6.5ft 9s 7s 16 22 mph 1011.8mb 67f 61f
2:50 6ft 10s 7s 16 20 mph 1012mb 67f 60f
1:50 5.5ft 9s 6s 16 20 mph 1012.1mb 67f 61f
12:50 6ft 9s 7s 16 18 mph 1012.5mb 67f 61f
Qua 07/27 11:50 5.5ft 10s 6s 16 20 mph 1012.4mb 67f 61f
10:50 6ft 9s 7s 16 20 mph 1012.3mb 67f 62f
9:50 5ft 10s 7s 18 20 mph 1012.4mb 67f 62f
8:50 6ft 10s 7s 18 20 mph 1012.1mb 67f 62f
7:50 5ft 10s 7s 16 20 mph 1011.9mb 67f 62f
6:50 5ft 10s 7s 13 18 mph 1012mb 67f 62f
5:50 5ft 10s 7s 16 18 mph 1012.2mb 67f 62f
4:50 5ft 11s 7s 13 18 mph 1012.7mb 67f 62f
3:50 5ft 11s 7s 13 18 mph 1013.1mb 67f 62f
2:50 5ft 10s 7s 13 16 mph 1013.6mb 67f 61f
1:50 6ft 10s 8s 13 16 mph 1013.9mb 67f 61f
12:50 5ft 10s 8s 11 16 mph 1014.2mb 67f 61f
11:50 5.5ft 9s 8s 9 11 mph 1014.4mb 66f 61f
10:50 5ft 9s 8s 9 11 mph 1013.9mb 66f 60f
9:50 5.5ft 10s 8s 9 11 mph 1013.8mb 66f 60f
8:50 5.5ft 10s 8s 9 13 mph 1013.6mb 66f 60f
7:50 5ft 10s 7s 9 11 mph 1013.1mb 66f 60f
6:50 6ft 10s 8s 11 13 mph 1012.7mb 67f 60f
5:50 6.5ft 9s 8s 11 13 mph 1011.9mb 67f 60f
4:50 5.5ft 10s 7s 11 16 mph 1011.5mb 67f 60f
3:50 6ft 10s 7s 11 16 mph 1011.7mb 66f 59f
2:50 5.5ft 10s 7s 11 13 mph 1011.6mb 66f 59f
1:50 5.5ft 10s 7s 11 16 mph 1011.9mb 66f 60f
12:50 5.5ft 10s 7s 11 13 mph 1012.2mb 66f 60f
Ter 07/26 11:50 5.5ft 9s 7s 13 18 mph 1011.9mb 67f 60f
10:50 6ft 9s 7s 16 20 mph 1011.9mb 67f 60f
9:50 6ft 9s 7s 16 20 mph 1011.5mb 67f 60f
8:50 6ft 9s 7s 16 20 mph 1011.1mb 67f 60f
7:50 5.5ft 8s 7s 16 20 mph 1011.1mb 67f 60f
6:50 5ft 9s 7s 16 20 mph 1011.2mb 67f 60f
5:50 5ft 10s 7s 16 20 mph 1011.4mb 67f 60f
4:50 4.5ft 10s 7s 18 20 mph 1011.3mb 67f 60f
3:50 5ft 9s 7s 13 18 mph 1012.1mb 67f 61f
2:50 5ft 11s 8s 13 16 mph 1012.5mb 67f 61f
1:50 5ft 14s 8s 9 11 mph 1013.1mb 67f 61f
12:50 5ft 10s 7s 7 9 mph 1013.3mb 66f 61f
11:50 5.5ft 9s 8s 9 11 mph 1013.1mb 66f 61f
10:50 5ft 9s 7s 7 11 mph 1013.3mb 66f 61f
9:50 5ft 9s 7s 9 11 mph 1013mb 66f 61f
8:50 5ft 10s 7s 7 9 mph 1013.5mb 66f 60f
7:50 5ft 9s 7s 9 13 mph 1013.2mb 66f 60f
6:50 5.5ft 9s 7s 7 9 mph 1012.9mb 66f 60f
5:50 5ft 8s 7s 7 9 mph 1012.7mb 66f 60f
4:50 6ft 10s 8s 7 9 mph 1012.6mb 66f 59f
3:50 5.5ft 10s 7s 9 13 mph 1012.7mb 67f 59f
2:50 6ft 9s 7s 9 11 mph 1012.9mb 66f 59f
1:50 7ft 9s 7s 11 13 mph 1012.7mb 66f 59f
12:50 7ft 10s 8s 11 13 mph 1012.9mb 66f 58f
Seg 07/25 11:50 6.5ft 10s 8s 11 16 mph 1013.2mb 66f 59f
10:50 6ft 9s 7s 11 18 mph 1013.1mb 66f 58f
9:50 6.5ft 9s 7s 11 13 mph 1013.2mb 66f 59f
8:50 6ft 9s 7s 16 20 mph 1012.6mb 66f 60f
7:50 6ft 10s 7s 16 20 mph 1012.4mb 66f 60f
6:50 6ft 10s 7s 13 18 mph 1012.3mb 67f 61f
5:50 5.5ft 10s 7s 16 18 mph 1012.2mb 67f 62f
4:50 6ft 10s 8s 13 16 mph 1012.8mb 67f 63f
3:50 6ft 10s 8s 13 16 mph 1013.4mb 67f 63f
2:50 6ft 8s 8s 11
mph
1014.1mb 67f 63f
1:50 5ft 9s 7s 7
mph
1014.9mb 68f 64f
12:50 5.5ft 9s 7s 4 7 mph 1015.3mb 67f 63f
10:50 6ft 9s 7s 4 7 mph 1015.6mb 67f 62f
9:50 6ft 15s 7s 4 7 mph 1015.3mb 67f 61f
8:50 6.5ft 10s 8s 4 7 mph 1015.1mb 67f 60f
7:50 6ft 10s 7s 7 9 mph 1014.5mb 66f 60f
6:50 6ft 10s 8s 7 9 mph 1014.1mb 67f 59f
4:50 7ft 10s 8s 7 11 mph 1013.4mb 66f 58f
3:50 7.5ft 10s 8s 2 4 mph 1013.4mb 66f 58f
2:50 7ft 10s 8s 2 4 mph 1013.2mb 66f 58f
1:50 7ft 10s 8s 4 9 mph 1013.2mb 66f 57f
12:50 7ft 9s 8s 7 9 mph 1013.4mb 65f 57f
Dom 07/24 11:50 7ft 10s 7s 11 13 mph 1013.2mb 65f 58f
10:50 7ft 10s 7s 13 18 mph 1013.1mb 66f 58f